Time;durP1;ratioP1;P1;durP2;ratioP2;P2;SDS_P1;SDS_P2;PMS_P1;PMS_P2;Temp;Humidity;BMP_temperature;BMP_pressure;BME280_temperature;BME280_humidity;BME280_pressure;Samples;Min_cycle;Max_cycle;Signal;HPM_P1;HPM_P2
2022/04/16 00:00:21;;;;;;;4.85;2.67;;;8.30;99.90;;;;;;5012263;28;20033;-62
2022/04/16 00:02:47;;;;;;;4.38;2.70;;;8.20;99.90;;;;;;5011312;28;20456;-62
2022/04/16 00:05:15;;;;;;;4.97;2.75;;;8.20;99.90;;;;;;5011956;28;20643;-62
2022/04/16 00:07:42;;;;;;;5.15;2.60;;;8.30;99.90;;;;;;5011543;28;20052;-62
2022/04/16 00:10:08;;;;;;;6.03;2.78;;;8.40;99.90;;;;;;5012080;28;20377;-63
2022/04/16 00:12:34;;;;;;;5.07;2.80;;;8.50;99.90;;;;;;5012147;28;20129;-63
2022/04/16 00:15:00;;;;;;;5.75;3.25;;;8.50;99.90;;;;;;5008460;28;20030;-62
2022/04/16 00:17:26;;;;;;;4.40;2.85;;;8.30;99.90;;;;;;5012568;28;20037;-63
2022/04/16 00:19:52;;;;;;;5.28;2.60;;;8.30;99.90;;;;;;5007371;28;20059;-62
2022/04/16 00:22:18;;;;;;;6.10;3.25;;;8.30;99.90;;;;;;5020745;28;20553;-63
2022/04/16 00:24:47;;;;;;;4.32;2.33;;;8.30;99.90;;;;;;5010950;28;20466;-62
2022/04/16 00:27:12;;;;;;;6.05;2.92;;;8.20;99.90;;;;;;5019695;28;20029;-62
2022/04/16 00:29:38;;;;;;;6.70;3.45;;;8.30;99.90;;;;;;5014325;28;20033;-62
2022/04/16 00:32:05;;;;;;;4.75;2.67;;;8.30;99.90;;;;;;5020862;28;20436;-62
2022/04/16 00:34:34;;;;;;;4.93;2.83;;;8.20;99.90;;;;;;5020263;28;20033;-62
2022/04/16 00:37:00;;;;;;;5.15;2.70;;;8.20;99.90;;;;;;5017055;28;20030;-62
2022/04/16 00:39:26;;;;;;;4.20;2.30;;;8.20;99.90;;;;;;5021316;28;20030;-63
2022/04/16 00:41:52;;;;;;;6.90;2.75;;;8.20;99.90;;;;;;5015205;28;20478;-62
2022/04/16 00:44:19;;;;;;;6.82;2.78;;;8.10;99.90;;;;;;5014425;28;20034;-62
2022/04/16 00:46:45;;;;;;;5.97;3.13;;;7.90;99.90;;;;;;5001943;28;20068;-62
2022/04/16 00:49:11;;;;;;;6.00;2.63;;;7.80;99.90;;;;;;4997834;28;20045;-62
2022/04/16 00:51:37;;;;;;;5.85;3.13;;;7.60;99.90;;;;;;5011255;28;20439;-62
2022/04/16 00:54:03;;;;;;;4.97;2.63;;;7.50;99.90;;;;;;5018160;28;20033;-62
2022/04/16 00:56:29;;;;;;;5.65;3.03;;;7.40;99.90;;;;;;4993502;28;20041;-62
2022/04/16 00:58:55;;;;;;;5.90;3.00;;;7.30;99.90;;;;;;5018637;28;20115;-62
2022/04/16 01:01:21;;;;;;;6.93;3.17;;;7.10;99.90;;;;;;5011056;28;20033;-62
2022/04/16 01:03:47;;;;;;;6.20;2.90;;;7.10;99.90;;;;;;5010643;28;20030;-62
2022/04/16 01:06:15;;;;;;;7.68;3.10;;;7.10;99.90;;;;;;5011673;28;20040;-62
2022/04/16 01:08:44;;;;;;;5.28;2.80;;;7.00;99.90;;;;;;5011379;28;20025;-62
2022/04/16 01:11:11;;;;;;;6.55;2.95;;;7.00;99.90;;;;;;5010671;28;20030;-62
2022/04/16 01:13:37;;;;;;;6.57;3.35;;;6.90;99.90;;;;;;5020249;28;20500;-62
2022/04/16 01:16:05;;;;;;;7.18;3.38;;;6.90;99.90;;;;;;5015979;28;20360;-62
2022/04/16 01:18:31;;;;;;;5.90;3.28;;;6.90;99.90;;;;;;5011207;28;20026;-62
2022/04/16 01:20:57;;;;;;;6.38;3.28;;;6.80;99.90;;;;;;5017327;28;20109;-62
2022/04/16 01:23:23;;;;;;;4.75;2.90;;;6.90;99.90;;;;;;5017613;28;20825;-62
2022/04/16 01:25:48;;;;;;;5.60;2.60;;;6.80;99.90;;;;;;4995490;28;20521;-62
2022/04/16 01:28:14;;;;;;;5.38;2.72;;;6.70;99.90;;;;;;5016477;28;20034;-62
2022/04/16 01:30:40;;;;;;;6.28;3.10;;;6.60;99.90;;;;;;5010999;28;20694;-62
2022/04/16 01:33:06;;;;;;;4.93;2.95;;;6.60;99.90;;;;;;5017115;28;20073;-62
2022/04/16 01:35:32;;;;;;;6.00;3.25;;;6.70;99.90;;;;;;5010591;28;20053;-62
2022/04/16 01:37:58;;;;;;;8.52;3.90;;;6.60;99.90;;;;;;5009515;28;20034;-62
2022/04/16 01:40:25;;;;;;;6.32;2.80;;;6.40;99.90;;;;;;5023261;28;20068;-62
2022/04/16 01:42:56;;;;;;;5.28;3.00;;;6.30;99.90;;;;;;5010593;28;20069;-62
2022/04/16 01:45:23;;;;;;;6.75;3.20;;;6.20;99.90;;;;;;4992522;28;20482;-62
2022/04/16 01:47:50;;;;;;;5.32;2.75;;;6.20;99.90;;;;;;5017289;28;20061;-62
2022/04/16 01:50:16;;;;;;;5.70;3.00;;;6.20;99.90;;;;;;5010862;28;20026;-62
2022/04/16 01:52:42;;;;;;;5.78;3.00;;;6.10;99.90;;;;;;5016663;28;20039;-62
2022/04/16 01:55:09;;;;;;;6.15;2.88;;;6.10;99.90;;;;;;4993411;28;20034;-62
2022/04/16 01:57:36;;;;;;;5.90;3.13;;;6.00;99.90;;;;;;5014737;28;20025;-62
2022/04/16 02:00:03;;;;;;;6.68;3.00;;;6.00;99.90;;;;;;5020773;28;20045;-62
2022/04/16 02:02:29;;;;;;;5.53;2.72;;;5.90;99.90;;;;;;5010062;28;20033;-62
2022/04/16 02:04:54;;;;;;;4.93;2.65;;;5.80;99.90;;;;;;5015284;28;20036;-62
2022/04/16 02:07:20;;;;;;;5.07;2.70;;;5.70;99.90;;;;;;5018173;28;20037;-62
2022/04/16 02:09:46;;;;;;;5.28;3.05;;;5.70;99.90;;;;;;5009390;28;20026;-62
2022/04/16 02:12:13;;;;;;;5.68;2.95;;;5.70;99.90;;;;;;5017313;28;20034;-62
2022/04/16 02:14:38;;;;;;;5.47;2.75;;;5.60;99.90;;;;;;5009551;28;20422;-62
2022/04/16 02:17:04;;;;;;;5.57;2.80;;;5.60;99.90;;;;;;5015446;28;20104;-62
2022/04/16 02:19:31;;;;;;;9.13;3.25;;;5.50;99.90;;;;;;5011182;28;20041;-62
2022/04/16 02:21:56;;;;;;;8.05;3.50;;;5.50;99.90;;;;;;5021692;28;20482;-62
2022/04/16 02:24:22;;;;;;;4.90;2.88;;;5.40;99.90;;;;;;5013447;28;20030;-62
2022/04/16 02:26:48;;;;;;;5.75;3.55;;;5.40;99.90;;;;;;5009115;28;20025;-62
2022/04/16 02:29:14;;;;;;;5.85;2.95;;;5.30;99.90;;;;;;5009092;28;20041;-62
2022/04/16 02:31:41;;;;;;;5.60;3.20;;;5.40;99.90;;;;;;5011323;28;20045;-62
2022/04/16 02:34:08;;;;;;;7.28;3.60;;;5.40;99.90;;;;;;5020220;28;20148;-62
2022/04/16 02:36:34;;;;;;;8.00;3.65;;;5.40;99.90;;;;;;5011794;28;20037;-62
2022/04/16 02:39:00;;;;;;;8.38;3.33;;;5.40;99.90;;;;;;5012420;28;20448;-62
2022/04/16 02:41:26;;;;;;;6.20;3.38;;;5.40;99.90;;;;;;5020361;28;20034;-62
2022/04/16 02:43:54;;;;;;;8.68;3.30;;;5.50;99.90;;;;;;5019249;28;20104;-62
2022/04/16 02:49:05;;;;;;;9.23;3.80;;;5.50;99.90;;;;;;5008625;28;20096;-62
2022/04/16 02:51:31;;;;;;;7.38;3.55;;;5.50;99.90;;;;;;5009233;28;20029;-62
2022/04/16 02:53:57;;;;;;;6.45;3.88;;;5.50;99.90;;;;;;5027096;28;20420;-62
2022/04/16 02:56:23;;;;;;;8.00;3.78;;;5.40;99.90;;;;;;5013604;28;20029;-62
2022/04/16 02:58:49;;;;;;;7.38;3.10;;;5.40;99.90;;;;;;5014880;28;20029;-62
2022/04/16 03:01:15;;;;;;;5.75;3.22;;;5.40;99.90;;;;;;5015839;28;20401;-62
2022/04/16 03:03:41;;;;;;;7.55;3.13;;;5.40;99.90;;;;;;5033047;28;20040;-62
2022/04/16 03:06:07;;;;;;;7.10;3.38;;;5.40;99.90;;;;;;5014130;28;20040;-62
2022/04/16 03:08:32;;;;;;;12.15;4.50;;;5.40;99.90;;;;;;5028127;28;20029;-62
2022/04/16 03:10:58;;;;;;;6.05;3.47;;;5.40;99.90;;;;;;5012362;28;20053;-62
2022/04/16 03:13:24;;;;;;;7.18;3.70;;;5.30;99.90;;;;;;5013070;28;20053;-62
2022/04/16 03:18:45;;;;;;;6.10;3.33;;;5.20;99.90;;;;;;4944531;28;20724;-62
2022/04/16 03:21:11;;;;;;;6.82;3.20;;;5.20;99.90;;;;;;5031154;28;20056;-62
2022/04/16 03:23:37;;;;;;;7.60;3.80;;;5.20;99.90;;;;;;5024280;28;20017;-62
2022/04/16 03:26:02;;;;;;;10.68;3.40;;;5.20;99.90;;;;;;5024931;28;20307;-62
2022/04/16 03:28:28;;;;;;;7.25;3.47;;;5.20;99.90;;;;;;5021167;28;20048;-62
2022/04/16 03:30:54;;;;;;;6.65;3.55;;;5.20;99.90;;;;;;5011954;28;20363;-62
2022/04/16 03:33:20;;;;;;;6.55;3.58;;;5.20;99.90;;;;;;5012881;28;20728;-62
2022/04/16 03:35:46;;;;;;;6.25;3.47;;;5.20;99.90;;;;;;5012804;28;20021;-62
2022/04/16 03:38:12;;;;;;;8.70;3.42;;;5.20;99.90;;;;;;5012007;28;20509;-62
2022/04/16 03:40:38;;;;;;;6.22;2.92;;;5.10;99.90;;;;;;4994805;28;20037;-62
2022/04/16 03:43:04;;;;;;;5.82;3.15;;;5.30;99.90;;;;;;5013053;28;20037;-62
2022/04/16 03:45:35;;;;;;;9.02;3.45;;;5.30;99.90;;;;;;5012620;28;20041;-62
2022/04/16 03:48:03;;;;;;;6.07;3.22;;;5.10;99.90;;;;;;5012141;28;20490;-62
2022/04/16 03:50:30;;;;;;;6.63;3.42;;;5.30;99.90;;;;;;5019191;28;20033;-62
2022/04/16 03:52:56;;;;;;;7.47;3.05;;;5.20;99.90;;;;;;5012145;28;20505;-62
2022/04/16 04:01:01;;;;;;;8.50;3.67;;;5.50;99.90;;;;;;5011526;28;20049;-62
2022/04/16 04:03:27;;;;;;;5.13;2.90;;;5.70;99.90;;;;;;5017303;28;20108;-62
2022/04/16 04:05:56;;;;;;;6.75;3.38;;;5.60;99.90;;;;;;5015344;28;20129;-62
2022/04/16 04:08:23;;;;;;;7.68;3.22;;;5.60;99.90;;;;;;4997994;28;20071;-62
2022/04/16 04:10:49;;;;;;;7.00;3.30;;;5.70;99.90;;;;;;5016540;28;20040;-62
2022/04/16 04:13:17;;;;;;;6.18;3.25;;;5.60;99.90;;;;;;4993260;28;20088;-62
2022/04/16 04:15:43;;;;;;;5.30;3.13;;;5.60;99.90;;;;;;5025335;28;20128;-62
2022/04/16 04:18:09;;;;;;;6.50;3.38;;;5.60;99.90;;;;;;5011939;28;20140;-64
2022/04/16 04:20:35;;;;;;;9.15;3.20;;;5.70;99.90;;;;;;5012004;28;20022;-62
2022/04/16 04:23:02;;;;;;;5.95;3.22;;;5.70;99.90;;;;;;5018163;28;20022;-62
2022/04/16 04:25:28;;;;;;;7.85;3.38;;;5.70;99.90;;;;;;5014414;28;20030;-62
2022/04/16 04:27:53;;;;;;;5.88;3.08;;;5.80;99.90;;;;;;5017606;28;20034;-62
2022/04/16 04:30:20;;;;;;;7.78;4.00;;;5.70;99.90;;;;;;5019545;28;20091;-62
2022/04/16 04:32:45;;;;;;;6.38;3.05;;;5.60;99.90;;;;;;5016701;28;20061;-62
2022/04/16 04:35:11;;;;;;;6.93;3.20;;;5.50;99.90;;;;;;5017668;28;20164;-62
2022/04/16 04:37:37;;;;;;;6.25;3.22;;;5.60;99.90;;;;;;5012825;28;20034;-62
2022/04/16 04:40:04;;;;;;;6.85;3.13;;;5.70;99.90;;;;;;5015536;28;20071;-62
2022/04/16 04:42:32;;;;;;;7.95;3.58;;;5.70;99.90;;;;;;5022573;28;20053;-62
2022/04/16 04:44:58;;;;;;;8.90;3.42;;;5.70;99.90;;;;;;5010495;28;20149;-62
2022/04/16 04:47:24;;;;;;;5.85;3.17;;;5.70;99.90;;;;;;5029508;28;20046;-62
2022/04/16 04:49:50;;;;;;;5.43;3.30;;;5.70;99.90;;;;;;5012867;28;20042;-62
2022/04/16 04:52:26;;;;;;;6.35;3.20;;;5.80;99.90;;;;;;5023404;28;20640;-62
2022/04/16 04:54:53;;;;;;;6.88;3.58;;;5.80;99.90;;;;;;5012839;28;20420;-62
2022/04/16 04:57:19;;;;;;;6.07;3.45;;;5.80;99.90;;;;;;5010221;28;20026;-62
2022/04/16 04:59:44;;;;;;;6.90;3.38;;;5.80;99.90;;;;;;5001507;28;20025;-62
2022/04/16 05:02:10;;;;;;;6.10;3.55;;;5.80;99.90;;;;;;5000831;28;20049;-62
2022/04/16 05:04:36;;;;;;;8.13;3.65;;;5.80;99.90;;;;;;5011160;28;20026;-62
2022/04/16 05:07:03;;;;;;;6.53;3.08;;;5.80;99.90;;;;;;5011117;28;20540;-62
2022/04/16 05:09:29;;;;;;;5.82;3.22;;;5.80;99.90;;;;;;5017774;28;20029;-62
2022/04/16 05:11:55;;;;;;;5.72;3.00;;;5.80;99.90;;;;;;5005880;28;20042;-62
2022/04/16 05:14:21;;;;;;;5.57;2.83;;;5.80;99.90;;;;;;5011480;28;20030;-62
2022/04/16 05:16:48;;;;;;;5.85;3.10;;;5.80;99.90;;;;;;5009987;28;20069;-61
2022/04/16 05:19:14;;;;;;;5.97;2.97;;;5.80;99.90;;;;;;5009588;28;20121;-62
2022/04/16 05:21:40;;;;;;;8.50;3.60;;;5.80;99.90;;;;;;5019102;28;20022;-62
2022/04/16 05:24:06;;;;;;;8.13;4.05;;;5.80;99.90;;;;;;5009973;28;20030;-61
2022/04/16 05:26:33;;;;;;;11.75;4.50;;;5.80;99.90;;;;;;5021419;28;20112;-62
2022/04/16 05:28:58;;;;;;;10.32;3.80;;;5.80;99.90;;;;;;5029841;28;20049;-61
2022/04/16 05:31:26;;;;;;;13.73;3.70;;;5.90;99.90;;;;;;5011798;28;20034;-62
2022/04/16 05:36:37;;;;;;;7.20;3.65;;;5.90;99.90;;;;;;5016634;28;20033;-62
2022/04/16 05:39:03;;;;;;;6.78;3.80;;;5.90;99.90;;;;;;5012546;28;20033;-62
2022/04/16 05:41:29;;;;;;;8.60;3.78;;;6.00;99.90;;;;;;5006408;28;20033;-62
2022/04/16 05:43:55;;;;;;;7.43;3.83;;;6.00;99.90;;;;;;5028544;28;20033;-62
2022/04/16 05:46:20;;;;;;;9.23;3.83;;;6.20;99.90;;;;;;5011300;28;20044;-62
2022/04/16 05:48:46;;;;;;;7.30;3.55;;;6.30;99.90;;;;;;5018435;28;20038;-61
2022/04/16 05:51:12;;;;;;;7.20;3.70;;;6.30;99.90;;;;;;5020499;28;20040;-62
2022/04/16 05:53:39;;;;;;;8.15;3.65;;;6.30;99.90;;;;;;5013314;28;20092;-62
2022/04/16 05:56:06;;;;;;;9.23;3.53;;;6.40;99.90;;;;;;5009435;28;20116;-61
2022/04/16 05:58:32;;;;;;;8.50;3.88;;;6.50;99.90;;;;;;5010204;28;20084;-62
2022/04/16 06:00:58;;;;;;;7.63;4.28;;;6.50;99.90;;;;;;5027998;28;20037;-62
2022/04/16 06:03:24;;;;;;;7.90;3.60;;;6.40;99.90;;;;;;5015785;28;20026;-62
2022/04/16 06:05:52;;;;;;;6.75;3.50;;;6.50;99.90;;;;;;5009901;28;20057;-62
2022/04/16 06:08:18;;;;;;;8.93;3.90;;;6.60;99.90;;;;;;5021543;28;20029;-62
2022/04/16 06:10:44;;;;;;;8.82;3.40;;;6.60;99.90;;;;;;5010314;28;20044;-62
2022/04/16 06:13:11;;;;;;;8.50;3.55;;;6.70;99.90;;;;;;5019622;28;20045;-62
2022/04/16 06:15:41;;;;;;;8.75;3.60;;;6.70;99.90;;;;;;5029491;28;20049;-61
2022/04/16 06:18:08;;;;;;;9.50;4.32;;;6.80;99.90;;;;;;5020174;28;20029;-61
2022/04/16 06:20:33;;;;;;;12.10;5.88;;;6.80;99.90;;;;;;5014485;28;20064;-62
2022/04/16 06:22:59;;;;;;;18.45;9.30;;;6.90;99.90;;;;;;5020819;28;20038;-61
2022/04/16 06:25:25;;;;;;;11.48;5.05;;;6.80;99.90;;;;;;5014027;28;20054;-62
2022/04/16 06:27:51;;;;;;;7.82;4.65;;;6.80;99.90;;;;;;5011726;28;20844;-62
2022/04/16 06:30:16;;;;;;;7.72;3.60;;;6.70;99.90;;;;;;5008830;28;20026;-62
2022/04/16 06:32:42;;;;;;;13.77;6.03;;;6.80;99.90;;;;;;5016030;28;20459;-62
2022/04/16 06:35:08;;;;;;;15.05;6.40;;;6.80;99.90;;;;;;5008634;28;20080;-62
2022/04/16 06:37:35;;;;;;;16.42;7.05;;;6.90;99.90;;;;;;5011587;28;20048;-62
2022/04/16 06:40:02;;;;;;;13.93;6.32;;;7.00;99.90;;;;;;5015405;28;20068;-62
2022/04/16 06:42:28;;;;;;;12.25;5.82;;;7.10;99.90;;;;;;4991413;28;20033;-62
2022/04/16 06:44:54;;;;;;;16.73;6.97;;;7.20;99.90;;;;;;5009546;28;20386;-62
2022/04/16 06:47:20;;;;;;;10.45;5.20;;;7.30;99.90;;;;;;5008798;28;20522;-62
2022/04/16 06:49:46;;;;;;;9.25;4.57;;;7.30;99.90;;;;;;5009358;28;20108;-62
2022/04/16 06:52:12;;;;;;;9.07;4.88;;;7.40;99.90;;;;;;5022253;28;20116;-62
2022/04/16 06:54:38;;;;;;;8.98;4.80;;;7.40;99.90;;;;;;5020855;28;20040;-62
2022/04/16 06:57:04;;;;;;;8.07;4.40;;;7.40;99.90;;;;;;5008917;28;20034;-62
2022/04/16 06:59:30;;;;;;;9.63;4.40;;;7.40;99.90;;;;;;5009088;28;20587;-62
2022/04/16 07:01:56;;;;;;;8.88;4.55;;;7.50;99.90;;;;;;5015802;28;20025;-62
2022/04/16 07:04:21;;;;;;;9.15;4.30;;;7.50;99.90;;;;;;5008833;28;20054;-62
2022/04/16 07:06:47;;;;;;;13.23;6.03;;;7.60;99.90;;;;;;5009195;28;20097;-62
2022/04/16 07:09:13;;;;;;;13.90;7.20;;;7.70;99.90;;;;;;5008628;28;20038;-62
2022/04/16 07:11:38;;;;;;;16.60;6.43;;;7.80;99.90;;;;;;5008962;28;20026;-62
2022/04/16 07:14:04;;;;;;;11.13;5.63;;;7.90;99.90;;;;;;5008707;28;20034;-62
2022/04/16 07:16:30;;;;;;;15.57;6.32;;;8.00;99.90;;;;;;5008272;28;20049;-62
2022/04/16 07:18:55;;;;;;;12.25;5.95;;;8.00;99.90;;;;;;5008749;28;20034;-62
2022/04/16 07:21:21;;;;;;;11.70;5.78;;;8.10;99.90;;;;;;5008085;28;20026;-62
2022/04/16 07:23:47;;;;;;;11.75;5.90;;;8.10;99.90;;;;;;5015279;28;20030;-62
2022/04/16 07:26:12;;;;;;;11.85;5.88;;;8.20;99.90;;;;;;5010046;28;20639;-62
2022/04/16 07:28:38;;;;;;;13.15;6.05;;;8.20;99.90;;;;;;5013034;28;20524;-62
2022/04/16 07:31:03;;;;;;;14.20;5.90;;;8.20;99.90;;;;;;5028158;28;20050;-62
2022/04/16 07:33:29;;;;;;;58.97;26.08;;;8.40;99.90;;;;;;5019567;28;20041;-62
2022/04/16 07:35:56;;;;;;;22.48;9.82;;;8.40;99.90;;;;;;5021297;28;20030;-62
2022/04/16 07:38:22;;;;;;;19.05;8.95;;;8.50;99.90;;;;;;5008367;28;20037;-62
2022/04/16 07:40:48;;;;;;;21.77;10.13;;;8.60;99.90;;;;;;5020669;28;20026;-62
2022/04/16 07:43:17;;;;;;;16.48;7.93;;;8.60;99.90;;;;;;5011511;28;20050;-62
2022/04/16 07:45:43;;;;;;;23.67;11.10;;;8.60;99.90;;;;;;5020671;28;20092;-62
2022/04/16 07:48:09;;;;;;;23.70;9.43;;;8.50;99.90;;;;;;5017268;28;20029;-61
2022/04/16 07:50:35;;;;;;;20.42;8.80;;;8.60;99.90;;;;;;5014508;28;20042;-61
2022/04/16 07:53:01;;;;;;;14.90;7.45;;;8.60;99.90;;;;;;5012459;28;20038;-62
2022/04/16 07:55:32;;;;;;;21.20;10.23;;;8.60;99.90;;;;;;5011538;28;20026;-62
2022/04/16 07:57:59;;;;;;;17.15;7.90;;;8.60;99.90;;;;;;5020212;28;20042;-61
2022/04/16 08:00:25;;;;;;;17.17;8.32;;;8.60;99.90;;;;;;5019270;28;20466;-61
2022/04/16 08:02:51;;;;;;;24.58;13.32;;;8.50;99.90;;;;;;5011985;28;20034;-62
2022/04/16 08:05:16;;;;;;;18.45;9.82;;;8.60;99.90;;;;;;4998674;28;20363;-61
2022/04/16 08:07:42;;;;;;;31.35;18.23;;;8.60;99.90;;;;;;5015568;28;20096;-62
2022/04/16 08:10:08;;;;;;;43.15;24.60;;;8.70;99.90;;;;;;5011635;28;20037;-61
2022/04/16 08:12:35;;;;;;;22.02;10.70;;;8.80;99.90;;;;;;5026174;28;20041;-61
2022/04/16 08:15:01;;;;;;;18.95;8.75;;;8.80;99.90;;;;;;5013268;28;20367;-62
2022/04/16 08:17:26;;;;;;;17.38;8.73;;;8.90;99.90;;;;;;5011247;28;20040;-62
2022/04/16 08:19:52;;;;;;;19.38;10.00;;;8.80;99.90;;;;;;5011913;28;20054;-61
2022/04/16 08:22:18;;;;;;;19.15;8.00;;;8.80;99.90;;;;;;5021962;28;20073;-62
2022/04/16 08:24:55;;;;;;;16.33;7.68;;;8.90;99.90;;;;;;5022731;28;20030;-61
2022/04/16 08:27:21;;;;;;;67.00;21.10;;;9.00;99.90;;;;;;5011301;28;20038;-62
2022/04/16 08:29:47;;;;;;;28.13;11.20;;;9.00;99.90;;;;;;5007671;28;20022;-62
2022/04/16 08:32:12;;;;;;;35.85;13.93;;;9.10;99.90;;;;;;5021204;28;20048;-62
2022/04/16 08:34:38;;;;;;;52.58;17.52;;;9.10;99.90;;;;;;5013660;28;20029;-62
2022/04/16 08:37:04;;;;;;;23.00;10.13;;;9.10;99.90;;;;;;5026981;28;20125;-62
2022/04/16 08:39:30;;;;;;;25.70;10.52;;;9.20;99.90;;;;;;5019906;28;20034;-61
2022/04/16 08:41:57;;;;;;;24.95;10.75;;;9.20;99.90;;;;;;5011520;28;20057;-61
2022/04/16 08:44:26;;;;;;;19.63;8.45;;;9.00;99.90;;;;;;5011051;28;20026;-62
2022/04/16 08:46:54;;;;;;;25.42;10.07;;;9.00;99.90;;;;;;5010913;28;20034;-61
2022/04/16 08:49:21;;;;;;;20.80;8.85;;;9.00;99.90;;;;;;5010632;28;20121;-61
2022/04/16 08:51:48;;;;;;;19.58;8.65;;;9.00;99.90;;;;;;5020268;28;20500;-61
2022/04/16 08:54:13;;;;;;;33.33;12.23;;;9.20;99.90;;;;;;5016560;28;20037;-61
2022/04/16 08:56:39;;;;;;;18.30;8.40;;;9.20;99.90;;;;;;5016027;28;20040;-61
2022/04/16 08:59:05;;;;;;;25.65;9.80;;;9.20;99.90;;;;;;5010947;28;20033;-61
2022/04/16 09:01:32;;;;;;;21.35;9.57;;;9.10;99.90;;;;;;5025375;28;20025;-61
2022/04/16 09:03:59;;;;;;;23.35;10.60;;;9.10;99.90;;;;;;5019187;28;20043;-61
2022/04/16 09:06:25;;;;;;;28.40;11.80;;;9.00;99.90;;;;;;5022119;28;20104;-61
2022/04/16 09:08:51;;;;;;;30.30;12.07;;;9.00;99.90;;;;;;5013857;28;20072;-61
2022/04/16 09:11:21;;;;;;;21.40;8.50;;;9.10;99.90;;;;;;5017600;28;20026;-61
2022/04/16 09:13:50;;;;;;;19.52;8.80;;;9.00;99.90;;;;;;5010818;28;20034;-61
2022/04/16 09:16:19;;;;;;;16.77;8.60;;;9.10;99.90;;;;;;5012820;28;20050;-61
2022/04/16 09:18:53;;;;;;;24.85;9.73;;;9.00;99.90;;;;;;5023334;28;20042;-61
2022/04/16 09:21:23;;;;;;;20.15;8.75;;;9.10;99.90;;;;;;5012576;28;20397;-61
2022/04/16 09:23:52;;;;;;;20.23;8.85;;;9.20;99.90;;;;;;5015478;28;20103;-61
2022/04/16 09:26:31;;;;;;;17.67;8.02;;;9.10;99.90;;;;;;5000455;28;20536;-61
2022/04/16 09:29:01;;;;;;;17.80;8.15;;;9.20;99.90;;;;;;5010660;28;20109;-61
2022/04/16 09:31:28;;;;;;;17.83;7.47;;;9.30;99.90;;;;;;5010051;28;20052;-61
2022/04/16 09:33:55;;;;;;;17.52;8.38;;;9.40;99.90;;;;;;5018383;28;20085;-61
2022/04/16 09:36:27;;;;;;;16.15;8.00;;;9.50;99.90;;;;;;5000019;28;20040;-61
2022/04/16 09:39:07;;;;;;;15.43;7.97;;;9.60;99.90;;;;;;5010351;28;20122;-61
2022/04/16 09:41:34;;;;;;;14.02;5.35;;;9.80;99.90;;;;;;4999783;28;20486;-61
2022/04/16 09:44:01;;;;;;;14.10;6.88;;;10.00;99.90;;;;;;5010486;28;20497;-61
2022/04/16 09:46:29;;;;;;;13.27;6.40;;;10.40;99.90;;;;;;5009260;28;20560;-61
2022/04/16 09:49:04;;;;;;;13.65;6.18;;;10.70;99.90;;;;;;5021708;28;20989;-61
2022/04/16 09:51:35;;;;;;;13.63;6.57;;;10.80;99.90;;;;;;5009390;28;20470;-61
2022/04/16 09:54:05;;;;;;;18.15;7.45;;;10.80;99.90;;;;;;5014553;28;20056;-61
2022/04/16 09:56:35;;;;;;;13.97;6.47;;;10.70;99.90;;;;;;5012006;28;20444;-61
2022/04/16 09:59:08;;;;;;;12.95;6.38;;;10.60;99.90;;;;;;5000588;28;20685;-61
2022/04/16 10:01:34;;;;;;;15.05;6.63;;;10.60;99.90;;;;;;5009199;28;20121;-61
2022/04/16 10:04:03;;;;;;;13.70;6.65;;;10.50;99.90;;;;;;5025678;28;20167;-61
2022/04/16 10:06:30;;;;;;;14.55;6.45;;;10.50;99.90;;;;;;5009212;28;20034;-62
2022/04/16 10:08:57;;;;;;;11.40;5.47;;;10.60;99.90;;;;;;5026080;28;20111;-61
2022/04/16 10:12:59;;;;;;;11.77;5.22;;;10.70;99.90;;;;;;4991304;28;20141;-62
2022/04/16 10:14:54;;;;;;;11.15;5.60;;;10.60;99.90;;;;;;5008663;28;20056;-61
2022/04/16 10:17:22;;;;;;;12.73;5.75;;;10.70;99.90;;;;;;5005611;28;20060;-61
2022/04/16 10:19:48;;;;;;;12.23;5.38;;;10.80;99.90;;;;;;5012041;28;20080;-61
2022/04/16 10:22:25;;;;;;;10.95;5.63;;;10.70;99.90;;;;;;5009817;28;20485;-61
2022/04/16 10:24:54;;;;;;;13.80;6.75;;;10.60;99.90;;;;;;5026747;28;20067;-61
2022/04/16 10:27:27;;;;;;;17.95;7.38;;;10.70;99.90;;;;;;5010486;28;20025;-61
2022/04/16 10:29:54;;;;;;;16.67;7.75;;;10.60;99.90;;;;;;4994550;28;20048;-61
2022/04/16 10:32:19;;;;;;;15.23;7.65;;;10.40;99.90;;;;;;5008788;28;20085;-62
2022/04/16 10:34:46;;;;;;;17.23;8.35;;;10.40;99.90;;;;;;4994364;28;20077;-61
2022/04/16 10:37:23;;;;;;;16.10;7.75;;;10.30;99.90;;;;;;5009485;28;20028;-61
2022/04/16 10:39:52;;;;;;;21.52;8.80;;;10.30;99.90;;;;;;5018568;28;20041;-61
2022/04/16 10:42:32;;;;;;;17.15;8.50;;;10.20;99.90;;;;;;5008932;28;20757;-61
2022/04/16 10:45:08;;;;;;;19.33;8.20;;;10.30;99.90;;;;;;5009470;28;20544;-61
2022/04/16 10:47:37;;;;;;;21.15;9.50;;;10.30;99.90;;;;;;5015534;28;20038;-61
2022/04/16 10:50:13;;;;;;;20.08;9.55;;;10.40;99.90;;;;;;5009090;28;20041;-61
2022/04/16 10:52:39;;;;;;;22.52;9.65;;;10.40;99.90;;;;;;5022456;28;20199;-61
2022/04/16 10:55:06;;;;;;;22.48;10.65;;;10.70;99.90;;;;;;5020662;28;20541;-61
2022/04/16 10:57:32;;;;;;;21.77;10.10;;;10.80;99.90;;;;;;5008627;28;20498;-61
2022/04/16 11:00:13;;;;;;;24.95;11.23;;;10.80;99.90;;;;;;5016880;28;20083;-61
2022/04/16 11:02:39;;;;;;;22.27;10.25;;;10.70;99.90;;;;;;5008643;28;20092;-61
2022/04/16 11:05:09;;;;;;;31.45;10.88;;;11.00;99.90;;;;;;4991604;28;20042;-61
2022/04/16 11:07:36;;;;;;;19.35;9.70;;;11.50;99.90;;;;;;5012278;28;20059;-61
2022/04/16 11:10:08;;;;;;;21.50;10.27;;;11.80;99.90;;;;;;5023330;28;20468;-61
2022/04/16 11:12:35;;;;;;;19.45;9.52;;;11.50;99.90;;;;;;5016502;28;20055;-61
2022/04/16 11:15:01;;;;;;;23.58;9.23;;;11.30;99.90;;;;;;5011468;28;20034;-62
2022/04/16 11:17:27;;;;;;;20.27;9.35;;;11.60;99.90;;;;;;5019880;28;20033;-61
2022/04/16 11:20:07;;;;;;;18.50;8.55;;;12.30;99.90;;;;;;5013035;28;20433;-61
2022/04/16 11:22:33;;;;;;;17.00;7.90;;;13.10;99.90;;;;;;5012019;28;20438;-61
2022/04/16 11:25:00;;;;;;;20.27;8.52;;;13.50;99.90;;;;;;5026302;28;20043;-61
2022/04/16 11:35:58;;;;;;;13.20;6.32;;;13.30;99.90;;;;;;5017370;28;20044;-61
2022/04/16 11:38:29;;;;;;;14.73;6.47;;;12.70;99.90;;;;;;5023402;28;20058;-61
2022/04/16 11:41:04;;;;;;;15.45;7.65;;;12.90;99.90;;;;;;5032436;28;20026;-61
2022/04/16 11:43:31;;;;;;;14.82;7.47;;;13.60;99.90;;;;;;5014213;28;20041;-61
2022/04/16 11:46:04;;;;;;;14.00;6.85;;;13.70;99.90;;;;;;5020554;28;20040;-61
2022/04/16 11:48:32;;;;;;;9.60;4.55;;;13.10;99.90;;;;;;5012768;28;20034;-61
2022/04/16 11:50:58;;;;;;;10.25;5.05;;;13.30;99.90;;;;;;5024806;28;20036;-61
2022/04/16 11:53:24;;;;;;;7.93;4.00;;;13.90;99.90;;;;;;5015606;28;20034;-61
2022/04/16 11:55:51;;;;;;;10.70;5.75;;;14.30;99.90;;;;;;5012515;28;20826;-61
2022/04/16 11:58:17;;;;;;;9.05;4.90;;;14.20;98.10;;;;;;5018746;28;20040;-61
2022/04/16 12:00:57;;;;;;;10.65;5.43;;;13.40;97.40;;;;;;5030506;28;20667;-61
2022/04/16 12:03:35;;;;;;;8.30;4.90;;;13.10;99.90;;;;;;5023445;28;20508;-61
2022/04/16 12:06:00;;;;;;;10.73;4.95;;;13.40;98.70;;;;;;5020334;28;20034;-61
2022/04/16 12:08:27;;;;;;;9.00;4.50;;;13.30;97.50;;;;;;5008831;28;20092;-61
2022/04/16 12:10:53;;;;;;;5.68;3.30;;;13.70;94.70;;;;;;5012937;28;20041;-61
2022/04/16 12:13:19;;;;;;;8.23;3.97;;;14.30;97.40;;;;;;5020209;28;20037;-61
2022/04/16 12:15:45;;;;;;;8.18;3.85;;;14.60;92.70;;;;;;5019254;28;20148;-61
2022/04/16 12:18:22;;;;;;;9.85;4.97;;;14.50;95.50;;;;;;5016125;28;20025;-61
2022/04/16 12:20:48;;;;;;;9.52;5.13;;;14.70;96.20;;;;;;5013559;28;20026;-61
2022/04/16 12:23:22;;;;;;;11.02;4.90;;;14.80;92.10;;;;;;5011849;28;20095;-61
2022/04/16 12:25:50;;;;;;;8.45;4.60;;;15.00;92.30;;;;;;5010951;28;20018;-61
2022/04/16 12:28:16;;;;;;;11.07;5.75;;;15.10;89.60;;;;;;5016260;28;20116;-61
2022/04/16 12:30:50;;;;;;;9.43;5.47;;;15.30;91.20;;;;;;5023012;28;20101;-61
2022/04/16 12:33:16;;;;;;;12.13;6.28;;;15.40;92.20;;;;;;5011701;28;20041;-61
2022/04/16 12:35:47;;;;;;;11.80;6.28;;;15.00;91.30;;;;;;5018187;28;20936;-61
2022/04/16 12:38:15;;;;;;;12.43;6.57;;;14.80;93.20;;;;;;5011639;28;20018;-61
2022/04/16 12:40:42;;;;;;;10.77;5.75;;;14.50;92.30;;;;;;5011894;28;20026;-62
2022/04/16 12:43:08;;;;;;;8.68;5.07;;;14.70;94.50;;;;;;5011626;28;20034;-61
2022/04/16 12:45:34;;;;;;;8.55;4.72;;;14.80;94.80;;;;;;5018471;28;20061;-61
2022/04/16 12:48:00;;;;;;;12.43;4.95;;;14.40;89.80;;;;;;5020020;28;20087;-61
2022/04/16 12:50:28;;;;;;;7.93;4.85;;;14.40;93.40;;;;;;5026422;28;20053;-61
2022/04/16 12:52:54;;;;;;;8.52;4.85;;;14.10;91.00;;;;;;5026781;28;20079;-61
2022/04/16 12:55:20;;;;;;;9.30;4.85;;;13.60;92.60;;;;;;5014317;28;20032;-61
2022/04/16 12:57:46;;;;;;;11.00;5.18;;;13.50;91.80;;;;;;5030052;28;20112;-61
2022/04/16 13:00:13;;;;;;;8.25;5.00;;;13.60;93.90;;;;;;5013227;28;20064;-61
2022/04/16 13:02:42;;;;;;;8.85;4.57;;;14.40;93.90;;;;;;5000363;28;20033;-61
2022/04/16 13:05:08;;;;;;;8.88;4.07;;;14.60;90.30;;;;;;5019008;28;20076;-61
2022/04/16 13:07:35;;;;;;;11.93;4.28;;;14.40;89.20;;;;;;5010293;28;20124;-61
2022/04/16 13:10:02;;;;;;;6.95;3.72;;;14.10;89.60;;;;;;5011061;28;20034;-61